sensor_id;sensor_type;location;lat;lon;timestamp;pressure;altitude;pressure_sealevel;temperature;humidity
19594;BME280;9944;48.240;16.478;2024-02-21T00:03:59;100684.00;;;6.98;67.22
19594;BME280;9944;48.240;16.478;2024-02-21T00:08:02;100685.78;;;6.99;66.79
19594;BME280;9944;48.240;16.478;2024-02-21T00:12:07;100679.66;;;6.98;66.57
19594;BME280;9944;48.240;16.478;2024-02-21T00:16:10;100677.06;;;7.00;66.84
19594;BME280;9944;48.240;16.478;2024-02-21T00:20:15;100680.53;;;6.99;66.63
19594;BME280;9944;48.240;16.478;2024-02-21T00:24:19;100677.84;;;6.97;66.61
19594;BME280;9944;48.240;16.478;2024-02-21T00:28:22;100676.97;;;6.97;66.43
19594;BME280;9944;48.240;16.478;2024-02-21T00:32:25;100674.31;;;6.95;66.15
19594;BME280;9944;48.240;16.478;2024-02-21T00:36:30;100669.06;;;6.95;66.69
19594;BME280;9944;48.240;16.478;2024-02-21T00:40:34;100660.34;;;6.96;66.92
19594;BME280;9944;48.240;16.478;2024-02-21T00:44:38;100665.59;;;6.96;66.69
19594;BME280;9944;48.240;16.478;2024-02-21T00:48:41;100667.34;;;6.96;67.22
19594;BME280;9944;48.240;16.478;2024-02-21T00:52:46;100654.13;;;6.93;66.80
19594;BME280;9944;48.240;16.478;2024-02-21T00:56:50;100655.00;;;6.93;66.66
19594;BME280;9944;48.240;16.478;2024-02-21T01:00:54;100655.84;;;6.91;66.49
19594;BME280;9944;48.240;16.478;2024-02-21T01:04:57;100651.47;;;6.91;66.58
19594;BME280;9944;48.240;16.478;2024-02-21T01:09:02;100659.25;;;6.88;66.28
19594;BME280;9944;48.240;16.478;2024-02-21T01:13:05;100651.38;;;6.88;66.37
19594;BME280;9944;48.240;16.478;2024-02-21T01:17:09;100647.00;;;6.89;66.39
19594;BME280;9944;48.240;16.478;2024-02-21T01:21:12;100646.13;;;6.88;66.14
19594;BME280;9944;48.240;16.478;2024-02-21T01:25:17;100636.56;;;6.90;66.06
19594;BME280;9944;48.240;16.478;2024-02-21T01:29:20;100633.00;;;6.88;65.73
19594;BME280;9944;48.240;16.478;2024-02-21T01:33:23;100629.56;;;6.89;65.90
19594;BME280;9944;48.240;16.478;2024-02-21T01:37:27;100628.69;;;6.90;65.87
19594;BME280;9944;48.240;16.478;2024-02-21T01:41:32;100626.13;;;6.93;65.81
19594;BME280;9944;48.240;16.478;2024-02-21T01:45:35;100622.63;;;6.93;65.46
19594;BME280;9944;48.240;16.478;2024-02-21T01:49:39;100614.75;;;6.93;65.36
19594;BME280;9944;48.240;16.478;2024-02-21T01:53:43;100619.09;;;6.92;65.25
19594;BME280;9944;48.240;16.478;2024-02-21T01:57:49;100609.56;;;6.94;65.26
19594;BME280;9944;48.240;16.478;2024-02-21T02:01:53;100606.88;;;6.93;64.95
19594;BME280;9944;48.240;16.478;2024-02-21T02:05:58;100599.06;;;6.94;65.04
19594;BME280;9944;48.240;16.478;2024-02-21T02:10:01;100593.81;;;6.94;64.93
19594;BME280;9944;48.240;16.478;2024-02-21T02:14:06;100591.19;;;6.94;64.95
19594;BME280;9944;48.240;16.478;2024-02-21T02:18:10;100590.31;;;6.95;64.34
19594;BME280;9944;48.240;16.478;2024-02-21T02:22:16;100597.34;;;6.96;64.54
19594;BME280;9944;48.240;16.478;2024-02-21T02:26:24;100578.06;;;6.94;64.30
19594;BME280;9944;48.240;16.478;2024-02-21T02:30:27;100581.59;;;6.96;64.33
19594;BME280;9944;48.240;16.478;2024-02-21T02:34:31;100579.81;;;6.95;64.03
19594;BME280;9944;48.240;16.478;2024-02-21T02:38:34;100574.56;;;6.95;64.18
19594;BME280;9944;48.240;16.478;2024-02-21T02:42:39;100584.16;;;6.93;64.02
19594;BME280;9944;48.240;16.478;2024-02-21T02:46:42;100571.91;;;6.94;63.80
19594;BME280;9944;48.240;16.478;2024-02-21T02:50:45;100568.41;;;6.93;64.07
19594;BME280;9944;48.240;16.478;2024-02-21T02:54:50;100576.28;;;6.93;64.14
19594;BME280;9944;48.240;16.478;2024-02-21T02:58:55;100566.59;;;6.91;64.16
19594;BME280;9944;48.240;16.478;2024-02-21T03:02:58;100565.66;;;6.89;63.88
19594;BME280;9944;48.240;16.478;2024-02-21T03:07:02;100568.28;;;6.89;63.88
19594;BME280;9944;48.240;16.478;2024-02-21T03:11:05;100567.41;;;6.88;64.04
19594;BME280;9944;48.240;16.478;2024-02-21T03:15:12;100564.75;;;6.86;64.34
19594;BME280;9944;48.240;16.478;2024-02-21T03:19:16;100561.25;;;6.86;64.04
19594;BME280;9944;48.240;16.478;2024-02-21T03:23:19;100561.25;;;6.86;64.07
19594;BME280;9944;48.240;16.478;2024-02-21T03:27:23;100553.38;;;6.86;64.16
19594;BME280;9944;48.240;16.478;2024-02-21T03:31:28;100552.53;;;6.89;64.29
19594;BME280;9944;48.240;16.478;2024-02-21T03:35:33;100555.16;;;6.87;64.19
19594;BME280;9944;48.240;16.478;2024-02-21T03:39:36;100558.69;;;6.89;64.40
19594;BME280;9944;48.240;16.478;2024-02-21T03:43:40;100564.00;;;6.92;64.38
19594;BME280;9944;48.240;16.478;2024-02-21T03:47:44;100578.06;;;6.94;64.38
19594;BME280;9944;48.240;16.478;2024-02-21T03:51:48;100562.22;;;6.91;63.98
19594;BME280;9944;48.240;16.478;2024-02-21T03:55:52;100565.69;;;6.90;63.70
19594;BME280;9944;48.240;16.478;2024-02-21T03:59:55;100563.03;;;6.89;63.89
19594;BME280;9944;48.240;16.478;2024-02-21T04:04:00;100560.41;;;6.87;63.81
19594;BME280;9944;48.240;16.478;2024-02-21T04:08:04;100560.41;;;6.87;63.90
19594;BME280;9944;48.240;16.478;2024-02-21T04:12:08;100565.66;;;6.87;64.22
19594;BME280;9944;48.240;16.478;2024-02-21T04:16:11;100564.78;;;6.88;64.20
19594;BME280;9944;48.240;16.478;2024-02-21T04:20:16;100555.06;;;6.84;64.53
19594;BME280;9944;48.240;16.478;2024-02-21T04:24:20;100556.69;;;6.79;63.94
19594;BME280;9944;48.240;16.478;2024-02-21T04:28:23;100559.16;;;6.73;64.32
19594;BME280;9944;48.240;16.478;2024-02-21T04:32:27;100559.94;;;6.69;64.48
19594;BME280;9944;48.240;16.478;2024-02-21T04:36:31;100563.41;;;6.67;64.56
19594;BME280;9944;48.240;16.478;2024-02-21T04:40:35;100559.88;;;6.65;64.76
19594;BME280;9944;48.240;16.478;2024-02-21T04:44:38;100549.31;;;6.64;64.93
19594;BME280;9944;48.240;16.478;2024-02-21T04:48:41;100551.94;;;6.64;64.80
19594;BME280;9944;48.240;16.478;2024-02-21T04:52:46;100545.84;;;6.63;65.03
19594;BME280;9944;48.240;16.478;2024-02-21T04:56:50;100555.44;;;6.64;65.25
19594;BME280;9944;48.240;16.478;2024-02-21T05:00:54;100548.41;;;6.62;65.21
19594;BME280;9944;48.240;16.478;2024-02-21T05:04:58;100551.00;;;6.60;64.83
19594;BME280;9944;48.240;16.478;2024-02-21T05:09:03;100542.28;;;6.61;65.18
19594;BME280;9944;48.240;16.478;2024-02-21T05:13:06;100544.09;;;6.64;64.98
19594;BME280;9944;48.240;16.478;2024-02-21T05:17:10;100537.97;;;6.63;64.85
19594;BME280;9944;48.240;16.478;2024-02-21T05:21:14;100537.09;;;6.63;65.04
19594;BME280;9944;48.240;16.478;2024-02-21T05:25:19;100535.25;;;6.60;65.16
19594;BME280;9944;48.240;16.478;2024-02-21T05:29:22;100526.47;;;6.58;65.17
19594;BME280;9944;48.240;16.478;2024-02-21T05:33:25;100530.00;;;6.60;65.29
19594;BME280;9944;48.240;16.478;2024-02-21T05:37:29;100519.50;;;6.60;64.92
19594;BME280;9944;48.240;16.478;2024-02-21T05:41:33;100525.69;;;6.62;65.04
19594;BME280;9944;48.240;16.478;2024-02-21T05:45:37;100527.47;;;6.63;65.16
19594;BME280;9944;48.240;16.478;2024-02-21T05:49:40;100524.84;;;6.63;65.08
19594;BME280;9944;48.240;16.478;2024-02-21T05:53:44;100528.31;;;6.62;64.73
19594;BME280;9944;48.240;16.478;2024-02-21T05:58:11;100530.09;;;6.63;65.16
19594;BME280;9944;48.240;16.478;2024-02-21T06:02:15;100524.84;;;6.63;64.94
19594;BME280;9944;48.240;16.478;2024-02-21T06:06:18;100528.38;;;6.65;64.50
19594;BME280;9944;48.240;16.478;2024-02-21T06:10:24;100515.22;;;6.64;64.57
19594;BME280;9944;48.240;16.478;2024-02-21T06:14:28;100520.50;;;6.65;64.61
19594;BME280;9944;48.240;16.478;2024-02-21T06:18:32;100517.94;;;6.67;64.54
19594;BME280;9944;48.240;16.478;2024-02-21T06:22:35;100514.47;;;6.70;64.61
19594;BME280;9944;48.240;16.478;2024-02-21T06:26:39;100514.56;;;6.73;64.48
19594;BME280;9944;48.240;16.478;2024-02-21T06:30:44;100508.50;;;6.75;64.41
19594;BME280;9944;48.240;16.478;2024-02-21T06:34:48;100507.69;;;6.78;64.62
19594;BME280;9944;48.240;16.478;2024-02-21T06:38:52;100505.16;;;6.82;64.33
19594;BME280;9944;48.240;16.478;2024-02-21T06:42:55;100506.13;;;6.86;64.35
19594;BME280;9944;48.240;16.478;2024-02-21T06:47:00;100505.25;;;6.85;64.04
19594;BME280;9944;48.240;16.478;2024-02-21T06:51:04;100510.53;;;6.89;63.53
19594;BME280;9944;48.240;16.478;2024-02-21T06:55:07;100502.69;;;6.90;63.58
19594;BME280;9944;48.240;16.478;2024-02-21T06:59:11;100502.78;;;6.93;63.52
19594;BME280;9944;48.240;16.478;2024-02-21T07:03:19;100501.06;;;6.95;63.46
19594;BME280;9944;48.240;16.478;2024-02-21T07:07:22;100510.84;;;7.01;63.22
19594;BME280;9944;48.240;16.478;2024-02-21T07:11:26;100507.47;;;7.07;62.77
19594;BME280;9944;48.240;16.478;2024-02-21T07:15:29;100498.78;;;7.11;62.94
19594;BME280;9944;48.240;16.478;2024-02-21T07:19:34;100504.13;;;7.14;63.00
19594;BME280;9944;48.240;16.478;2024-02-21T07:23:40;100503.25;;;7.15;62.67
19594;BME280;9944;48.240;16.478;2024-02-21T07:27:44;100509.47;;;7.18;62.65
19594;BME280;9944;48.240;16.478;2024-02-21T07:31:48;100499.91;;;7.22;62.41
19594;BME280;9944;48.240;16.478;2024-02-21T07:35:55;100489.47;;;7.25;62.62
19594;BME280;9944;48.240;16.478;2024-02-21T07:39:58;100491.31;;;7.29;62.34
19594;BME280;9944;48.240;16.478;2024-02-21T07:44:01;100487.00;;;7.33;62.24
19594;BME280;9944;48.240;16.478;2024-02-21T07:48:06;100481.00;;;7.38;62.13
19594;BME280;9944;48.240;16.478;2024-02-21T07:52:10;100473.25;;;7.45;62.52
19594;BME280;9944;48.240;16.478;2024-02-21T07:56:14;100469.94;;;7.55;62.40
19594;BME280;9944;48.240;16.478;2024-02-21T08:00:20;100469.13;;;7.59;61.66
19594;BME280;9944;48.240;16.478;2024-02-21T08:04:23;100471.03;;;7.66;61.63
19594;BME280;9944;48.240;16.478;2024-02-21T08:08:28;100465.94;;;7.75;61.48
19594;BME280;9944;48.240;16.478;2024-02-21T08:12:32;100466.91;;;7.80;60.88
19594;BME280;9944;48.240;16.478;2024-02-21T08:16:35;100466.19;;;7.89;61.02
19594;BME280;9944;48.240;16.478;2024-02-21T08:20:38;100454.91;;;7.95;61.21
19594;BME280;9944;48.240;16.478;2024-02-21T08:24:42;100454.09;;;7.99;60.71
19594;BME280;9944;48.240;16.478;2024-02-21T08:28:46;100453.25;;;8.00;59.77
19594;BME280;9944;48.240;16.478;2024-02-21T08:32:49;100455.91;;;8.03;60.37
19594;BME280;9944;48.240;16.478;2024-02-21T08:36:52;100445.66;;;8.18;59.78
19594;BME280;9944;48.240;16.478;2024-02-21T08:40:57;100447.72;;;8.35;59.61
19594;BME280;9944;48.240;16.478;2024-02-21T08:45:01;100446.22;;;8.52;59.12
19594;BME280;9944;48.240;16.478;2024-02-21T08:49:04;100436.72;;;8.61;58.91
19594;BME280;9944;48.240;16.478;2024-02-21T08:53:07;100434.16;;;8.67;58.61
19594;BME280;9944;48.240;16.478;2024-02-21T08:57:12;100437.72;;;8.72;58.47
19594;BME280;9944;48.240;16.478;2024-02-21T09:01:16;100440.44;;;8.77;57.84
19594;BME280;9944;48.240;16.478;2024-02-21T09:05:19;100432.63;;;8.84;57.95
19594;BME280;9944;48.240;16.478;2024-02-21T09:09:23;100433.50;;;8.83;57.12
19594;BME280;9944;48.240;16.478;2024-02-21T09:13:31;100429.09;;;8.82;57.31
19594;BME280;9944;48.240;16.478;2024-02-21T09:17:35;100429.19;;;8.88;56.63
19594;BME280;9944;48.240;16.478;2024-02-21T09:21:38;100429.34;;;9.01;56.31
19594;BME280;9944;48.240;16.478;2024-02-21T09:25:41;100415.50;;;9.17;55.72
19594;BME280;9944;48.240;16.478;2024-02-21T09:29:46;100416.50;;;9.27;56.22
19594;BME280;9944;48.240;16.478;2024-02-21T09:33:49;100413.06;;;9.34;55.50
19594;BME280;9944;48.240;16.478;2024-02-21T09:37:53;100415.78;;;9.42;55.33
19594;BME280;9944;48.240;16.478;2024-02-21T09:41:59;100412.28;;;9.43;55.59
19594;BME280;9944;48.240;16.478;2024-02-21T09:46:03;100407.94;;;9.46;55.57
19594;BME280;9944;48.240;16.478;2024-02-21T09:50:08;100398.38;;;9.59;55.77
19594;BME280;9944;48.240;16.478;2024-02-21T09:54:11;100402.06;;;9.77;55.53
19594;BME280;9944;48.240;16.478;2024-02-21T09:58:18;100397.72;;;9.83;54.16
19594;BME280;9944;48.240;16.478;2024-02-21T10:02:23;100386.28;;;9.81;55.01
19594;BME280;9944;48.240;16.478;2024-02-21T10:06:27;100385.44;;;9.84;55.06
19594;BME280;9944;48.240;16.478;2024-02-21T10:10:40;100382.81;;;9.87;54.42
19594;BME280;9944;48.240;16.478;2024-02-21T10:14:45;100380.31;;;9.96;54.95
19594;BME280;9944;48.240;16.478;2024-02-21T10:18:54;100375.97;;;10.01;54.69
19594;BME280;9944;48.240;16.478;2024-02-21T10:23:01;100379.50;;;10.07;54.64
19594;BME280;9944;48.240;16.478;2024-02-21T10:27:06;100369.94;;;10.19;54.40
19594;BME280;9944;48.240;16.478;2024-02-21T10:31:21;100370.06;;;10.38;53.79
19594;BME280;9944;48.240;16.478;2024-02-21T10:35:27;100365.75;;;10.55;53.82
19594;BME280;9944;48.240;16.478;2024-02-21T10:39:32;100361.41;;;10.68;52.90
19594;BME280;9944;48.240;16.478;2024-02-21T10:43:38;100350.91;;;10.82;53.37
19594;BME280;9944;48.240;16.478;2024-02-21T10:47:46;100348.31;;;10.90;52.55
19594;BME280;9944;48.240;16.478;2024-02-21T10:51:55;100343.03;;;10.93;52.67
19594;BME280;9944;48.240;16.478;2024-02-21T10:56:06;100341.25;;;10.95;52.64
19594;BME280;9944;48.240;16.478;2024-02-21T11:00:17;100335.13;;;10.97;52.79
19594;BME280;9944;48.240;16.478;2024-02-21T11:04:21;100337.78;;;11.02;52.83
19594;BME280;9944;48.240;16.478;2024-02-21T11:08:26;100329.84;;;11.00;52.80
19594;BME280;9944;48.240;16.478;2024-02-21T11:12:32;100315.75;;;10.95;52.04
19594;BME280;9944;48.240;16.478;2024-02-21T11:16:37;100313.09;;;10.92;52.37
19594;BME280;9944;48.240;16.478;2024-02-21T11:20:49;100301.66;;;10.92;52.07
19594;BME280;9944;48.240;16.478;2024-02-21T11:24:54;100311.34;;;10.90;52.17
19594;BME280;9944;48.240;16.478;2024-02-21T11:28:58;100300.75;;;10.85;51.85
19594;BME280;9944;48.240;16.478;2024-02-21T11:33:03;100301.63;;;10.79;52.20
19594;BME280;9944;48.240;16.478;2024-02-21T11:37:13;100296.31;;;10.73;51.87
19594;BME280;9944;48.240;16.478;2024-02-21T11:41:18;100283.09;;;10.70;52.47
19594;BME280;9944;48.240;16.478;2024-02-21T11:45:25;100276.03;;;10.72;52.45
19594;BME280;9944;48.240;16.478;2024-02-21T11:49:29;100270.78;;;10.78;52.10
19594;BME280;9944;48.240;16.478;2024-02-21T11:53:33;100256.72;;;10.79;51.93
19594;BME280;9944;48.240;16.478;2024-02-21T11:57:47;100252.34;;;10.83;51.37
19594;BME280;9944;48.240;16.478;2024-02-21T12:01:52;100247.94;;;10.87;51.28
19594;BME280;9944;48.240;16.478;2024-02-21T12:05:57;100240.88;;;10.89;51.63
19594;BME280;9944;48.240;16.478;2024-02-21T12:10:02;100244.41;;;10.91;51.25
19594;BME280;9944;48.240;16.478;2024-02-21T12:14:06;100239.16;;;10.95;51.78
19594;BME280;9944;48.240;16.478;2024-02-21T12:18:11;100239.16;;;10.97;51.42
19594;BME280;9944;48.240;16.478;2024-02-21T12:22:16;100220.66;;;10.97;51.37
19594;BME280;9944;48.240;16.478;2024-02-21T12:26:19;100217.13;;;10.99;51.00
19594;BME280;9944;48.240;16.478;2024-02-21T12:30:24;100213.63;;;11.00;51.23
19594;BME280;9944;48.240;16.478;2024-02-21T12:34:28;100214.50;;;11.04;51.01
19594;BME280;9944;48.240;16.478;2024-02-21T12:38:49;100213.63;;;11.08;50.61
19594;BME280;9944;48.240;16.478;2024-02-21T12:42:53;100214.50;;;11.07;50.54
19594;BME280;9944;48.240;16.478;2024-02-21T12:46:57;100210.97;;;11.05;50.91
19594;BME280;9944;48.240;16.478;2024-02-21T12:51:01;100205.69;;;11.05;51.14
19594;BME280;9944;48.240;16.478;2024-02-21T12:55:05;100190.72;;;11.09;50.84
19594;BME280;9944;48.240;16.478;2024-02-21T12:59:09;100191.59;;;11.09;50.61
19594;BME280;9944;48.240;16.478;2024-02-21T13:03:14;100174.00;;;11.13;50.65
19594;BME280;9944;48.240;16.478;2024-02-21T13:07:18;100175.75;;;11.22;50.57
19594;BME280;9944;48.240;16.478;2024-02-21T13:11:21;100170.47;;;11.22;50.21
19594;BME280;9944;48.240;16.478;2024-02-21T13:15:29;100159.91;;;11.25;49.92
19594;BME280;9944;48.240;16.478;2024-02-21T13:19:33;100149.34;;;11.25;49.01
19594;BME280;9944;48.240;16.478;2024-02-21T13:23:37;100153.72;;;11.23;49.39
19594;BME280;9944;48.240;16.478;2024-02-21T13:27:40;100137.88;;;11.26;49.56
19594;BME280;9944;48.240;16.478;2024-02-21T13:31:44;100128.16;;;11.28;49.10
19594;BME280;9944;48.240;16.478;2024-02-21T13:35:49;100126.44;;;11.33;48.93
19594;BME280;9944;48.240;16.478;2024-02-21T13:39:52;100115.84;;;11.36;48.82
19594;BME280;9944;48.240;16.478;2024-02-21T13:43:55;100114.09;;;11.41;48.83
19594;BME280;9944;48.240;16.478;2024-02-21T13:47:59;100098.22;;;11.41;47.99
19594;BME280;9944;48.240;16.478;2024-02-21T13:52:04;100099.09;;;11.42;48.19
19594;BME280;9944;48.240;16.478;2024-02-21T13:56:07;100091.16;;;11.43;48.13
19594;BME280;9944;48.240;16.478;2024-02-21T14:00:12;100092.06;;;11.44;48.66
19594;BME280;9944;48.240;16.478;2024-02-21T14:04:15;100084.09;;;11.47;48.36
19594;BME280;9944;48.240;16.478;2024-02-21T14:08:20;100077.03;;;11.56;48.37
19594;BME280;9944;48.240;16.478;2024-02-21T14:12:24;100068.19;;;11.64;48.47
19594;BME280;9944;48.240;16.478;2024-02-21T14:16:27;100057.59;;;11.70;47.92
19594;BME280;9944;48.240;16.478;2024-02-21T14:20:31;100054.06;;;11.74;47.89
19594;BME280;9944;48.240;16.478;2024-02-21T14:24:36;100062.84;;;11.73;47.38
19594;BME280;9944;48.240;16.478;2024-02-21T14:28:39;100056.69;;;11.69;47.49
19594;BME280;9944;48.240;16.478;2024-02-21T14:32:44;100045.25;;;11.72;47.39
19594;BME280;9944;48.240;16.478;2024-02-21T14:36:48;100046.09;;;11.77;47.34
19594;BME280;9944;48.240;16.478;2024-02-21T14:40:52;100033.75;;;11.76;47.03
19594;BME280;9944;48.240;16.478;2024-02-21T14:44:56;100037.25;;;11.80;46.90
19594;BME280;9944;48.240;16.478;2024-02-21T14:49:06;100024.03;;;11.84;46.95
19594;BME280;9944;48.240;16.478;2024-02-21T14:53:09;100024.03;;;11.87;46.72
19594;BME280;9944;48.240;16.478;2024-02-21T14:57:14;100016.88;;;11.96;46.63
19594;BME280;9944;48.240;16.478;2024-02-21T15:01:17;100004.50;;;12.04;46.67
19594;BME280;9944;48.240;16.478;2024-02-21T15:05:21;100000.97;;;12.06;45.90
19594;BME280;9944;48.240;16.478;2024-02-21T15:09:45;99992.09;;;12.12;45.42
19594;BME280;9944;48.240;16.478;2024-02-21T15:14:09;100006.22;;;12.12;44.69
19594;BME280;9944;48.240;16.478;2024-02-21T15:18:34;100002.75;;;12.03;45.93
19594;BME280;9944;48.240;16.478;2024-02-21T15:22:59;100001.91;;;11.96;46.12
19594;BME280;9944;48.240;16.478;2024-02-21T15:27:27;99999.34;;;11.85;46.59
19594;BME280;9944;48.240;16.478;2024-02-21T15:31:51;100002.94;;;11.75;46.98
19594;BME280;9944;48.240;16.478;2024-02-21T15:36:15;100000.28;;;11.69;47.04
19594;BME280;9944;48.240;16.478;2024-02-21T15:40:38;99999.44;;;11.64;47.27
19594;BME280;9944;48.240;16.478;2024-02-21T15:45:02;99994.22;;;11.54;47.06
19594;BME280;9944;48.240;16.478;2024-02-21T15:49:28;99990.72;;;11.46;47.01
19594;BME280;9944;48.240;16.478;2024-02-21T15:53:52;99989.84;;;11.38;47.31
19594;BME280;9944;48.240;16.478;2024-02-21T15:58:15;99980.19;;;11.37;47.36
19594;BME280;9944;48.240;16.478;2024-02-21T16:02:41;99974.88;;;11.29;48.02
19594;BME280;9944;48.240;16.478;2024-02-21T16:07:06;99966.09;;;11.23;48.07
19594;BME280;9944;48.240;16.478;2024-02-21T16:11:30;99980.25;;;11.09;48.99
19594;BME280;9944;48.240;16.478;2024-02-21T16:15:54;99973.22;;;10.99;48.96
19594;BME280;9944;48.240;16.478;2024-02-21T16:20:17;99977.66;;;10.95;49.52
19594;BME280;9944;48.240;16.478;2024-02-21T16:24:42;99983.81;;;10.87;49.54
19594;BME280;9944;48.240;16.478;2024-02-21T16:29:06;99980.31;;;10.78;49.91
19594;BME280;9944;48.240;16.478;2024-02-21T16:33:30;99982.06;;;10.67;50.40
19594;BME280;9944;48.240;16.478;2024-02-21T16:37:53;99975.94;;;10.62;50.77
19594;BME280;9944;48.240;16.478;2024-02-21T16:42:18;99978.56;;;10.53;51.03
19594;BME280;9944;48.240;16.478;2024-02-21T16:46:42;99977.69;;;10.46;51.35
19594;BME280;9944;48.240;16.478;2024-02-21T16:51:04;99971.53;;;10.42;51.20
19594;BME280;9944;48.240;16.478;2024-02-21T16:55:29;99973.31;;;10.34;51.55
19594;BME280;9944;48.240;16.478;2024-02-21T16:59:56;99965.41;;;10.30;51.70
19594;BME280;9944;48.240;16.478;2024-02-21T17:04:20;99972.44;;;10.26;51.58
19594;BME280;9944;48.240;16.478;2024-02-21T17:08:44;99974.19;;;10.22;51.83
19594;BME280;9944;48.240;16.478;2024-02-21T17:13:08;99969.75;;;10.17;51.62
19594;BME280;9944;48.240;16.478;2024-02-21T17:17:34;99952.19;;;10.10;51.83
19594;BME280;9944;48.240;16.478;2024-02-21T17:21:57;99962.75;;;10.03;52.05
19594;BME280;9944;48.240;16.478;2024-02-21T17:26:21;99944.25;;;9.94;52.22
19594;BME280;9944;48.240;16.478;2024-02-21T17:30:44;99948.63;;;9.84;52.06
19594;BME280;9944;48.240;16.478;2024-02-21T17:34:50;99948.59;;;9.74;52.39
19594;BME280;9944;48.240;16.478;2024-02-21T17:38:54;99943.31;;;9.67;52.63
19594;BME280;9944;48.240;16.478;2024-02-21T17:42:57;99933.63;;;9.60;52.39
19594;BME280;9944;48.240;16.478;2024-02-21T17:47:01;99933.63;;;9.51;52.84
19594;BME280;9944;48.240;16.478;2024-02-21T17:51:17;99926.56;;;9.39;52.75
19594;BME280;9944;48.240;16.478;2024-02-21T17:55:29;99919.50;;;9.29;53.04
19594;BME280;9944;48.240;16.478;2024-02-21T17:59:33;99919.47;;;9.20;53.38
19594;BME280;9944;48.240;16.478;2024-02-21T18:03:36;99909.75;;;9.08;53.60
19594;BME280;9944;48.240;16.478;2024-02-21T18:07:40;99900.06;;;9.01;53.37
19594;BME280;9944;48.240;16.478;2024-02-21T18:11:45;99898.25;;;8.89;53.64
19594;BME280;9944;48.240;16.478;2024-02-21T18:15:48;99893.81;;;8.77;53.89
19594;BME280;9944;48.240;16.478;2024-02-21T18:19:52;99883.22;;;8.63;54.15
19594;BME280;9944;48.240;16.478;2024-02-21T18:23:56;99880.53;;;8.57;54.52
19594;BME280;9944;48.240;16.478;2024-02-21T18:28:00;99876.13;;;8.51;54.96
19594;BME280;9944;48.240;16.478;2024-02-21T18:32:03;99869.03;;;8.41;54.88
19594;BME280;9944;48.240;16.478;2024-02-21T18:36:07;99864.63;;;8.34;55.05
19594;BME280;9944;48.240;16.478;2024-02-21T18:40:12;99851.41;;;8.28;55.26
19594;BME280;9944;48.240;16.478;2024-02-21T18:44:16;99853.13;;;8.23;55.34
19594;BME280;9944;48.240;16.478;2024-02-21T18:48:20;99836.44;;;8.16;55.57
19594;BME280;9944;48.240;16.478;2024-02-21T18:52:23;99835.50;;;8.09;55.65
19594;BME280;9944;48.240;16.478;2024-02-21T18:56:28;99836.31;;;8.01;55.76
19594;BME280;9944;48.240;16.478;2024-02-21T19:00:32;99830.13;;;7.94;55.68
19594;BME280;9944;48.240;16.478;2024-02-21T19:04:35;99828.31;;;7.87;55.88
19594;BME280;9944;48.240;16.478;2024-02-21T19:08:39;99830.91;;;7.77;55.77
19594;BME280;9944;48.240;16.478;2024-02-21T19:12:44;99831.69;;;7.70;56.11
19594;BME280;9944;48.240;16.478;2024-02-21T19:16:47;99827.25;;;7.63;56.23
19594;BME280;9944;48.240;16.478;2024-02-21T19:20:51;99837.72;;;7.57;56.45
19594;BME280;9944;48.240;16.478;2024-02-21T19:24:55;99828.00;;;7.47;56.47
19594;BME280;9944;48.240;16.478;2024-02-21T19:28:59;99826.16;;;7.38;56.63
19594;BME280;9944;48.240;16.478;2024-02-21T19:33:03;99820.84;;;7.32;56.84
19594;BME280;9944;48.240;16.478;2024-02-21T19:37:06;99816.44;;;7.28;56.71
19594;BME280;9944;48.240;16.478;2024-02-21T19:41:09;99808.50;;;7.23;57.03
19594;BME280;9944;48.240;16.478;2024-02-21T19:45:14;99813.72;;;7.20;57.07
19594;BME280;9944;48.240;16.478;2024-02-21T19:49:18;99809.28;;;7.14;57.26
19594;BME280;9944;48.240;16.478;2024-02-21T19:53:21;99797.84;;;7.08;56.91
19594;BME280;9944;48.240;16.478;2024-02-21T19:57:25;99794.31;;;7.05;57.27
19594;BME280;9944;48.240;16.478;2024-02-21T20:01:29;99789.94;;;7.03;57.15
19594;BME280;9944;48.240;16.478;2024-02-21T20:05:33;99793.38;;;7.00;57.38
19594;BME280;9944;48.240;16.478;2024-02-21T20:09:36;99785.47;;;6.94;57.12
19594;BME280;9944;48.240;16.478;2024-02-21T20:13:40;99786.28;;;6.92;57.02
19594;BME280;9944;48.240;16.478;2024-02-21T20:17:45;99770.53;;;6.90;57.02
19594;BME280;9944;48.240;16.478;2024-02-21T20:21:50;99752.16;;;6.87;56.75
19594;BME280;9944;48.240;16.478;2024-02-21T20:25:53;99756.53;;;6.90;56.77
19594;BME280;9944;48.240;16.478;2024-02-21T20:29:57;99749.59;;;6.93;56.98
19594;BME280;9944;48.240;16.478;2024-02-21T20:34:01;99759.25;;;6.96;56.83
19594;BME280;9944;48.240;16.478;2024-02-21T20:38:05;99750.50;;;6.98;57.05
19594;BME280;9944;48.240;16.478;2024-02-21T20:42:09;99735.66;;;7.02;57.12
19594;BME280;9944;48.240;16.478;2024-02-21T20:46:15;99729.50;;;6.98;56.47
19594;BME280;9944;48.240;16.478;2024-02-21T20:50:19;99715.44;;;6.92;56.72
19594;BME280;9944;48.240;16.478;2024-02-21T20:54:24;99713.66;;;6.86;56.62
19594;BME280;9944;48.240;16.478;2024-02-21T20:58:27;99705.75;;;6.83;56.73
19594;BME280;9944;48.240;16.478;2024-02-21T21:02:30;99704.91;;;6.84;56.74
19594;BME280;9944;48.240;16.478;2024-02-21T21:06:34;99692.66;;;6.86;56.89
19594;BME280;9944;48.240;16.478;2024-02-21T21:10:38;99693.56;;;6.88;57.12
19594;BME280;9944;48.240;16.478;2024-02-21T21:14:41;99696.22;;;6.91;57.21
19594;BME280;9944;48.240;16.478;2024-02-21T21:18:44;99688.34;;;6.91;57.36
19594;BME280;9944;48.240;16.478;2024-02-21T21:22:49;99673.44;;;6.87;57.31
19594;BME280;9944;48.240;16.478;2024-02-21T21:27:13;99671.63;;;6.83;57.32
19594;BME280;9944;48.240;16.478;2024-02-21T21:31:18;99658.47;;;6.78;57.48
19594;BME280;9944;48.240;16.478;2024-02-21T21:35:22;99640.09;;;6.74;57.24
19594;BME280;9944;48.240;16.478;2024-02-21T21:39:29;99626.09;;;6.73;57.49
19594;BME280;9944;48.240;16.478;2024-02-21T21:43:34;99612.06;;;6.73;57.27
19594;BME280;9944;48.240;16.478;2024-02-21T21:47:41;99601.59;;;6.73;57.39